createdAt,value
2018-01-05T00:00:53.227Z,30.67
2018-01-05T00:03:20.689Z,33.90
2018-01-05T00:05:48.136Z,21.93
2018-01-05T00:08:15.600Z,27.67
2018-01-05T00:10:43.056Z,22.97
2018-01-05T00:13:10.501Z,22.43
2018-01-05T00:15:37.952Z,30.52
2018-01-05T00:18:05.408Z,20.63
2018-01-05T00:20:32.875Z,19.73
2018-01-05T00:23:00.339Z,26.40
2018-01-05T00:25:27.877Z,29.07
2018-01-05T00:27:55.390Z,23.33
2018-01-05T00:30:22.892Z,14.38
2018-01-05T00:32:50.435Z,18.23
2018-01-05T00:35:17.890Z,31.25
2018-01-05T00:37:45.340Z,28.30
2018-01-05T00:40:12.807Z,19.10
2018-01-05T00:42:40.284Z,35.25
2018-01-05T00:45:07.727Z,25.42
2018-01-05T00:47:35.188Z,19.73
2018-01-05T00:50:02.651Z,30.30
2018-01-05T00:52:30.115Z,23.77
2018-01-05T00:54:57.786Z,27.33
2018-01-05T00:57:25.271Z,45.33
2018-01-05T00:59:52.748Z,18.42
2018-01-05T01:02:20.266Z,13.07
2018-01-05T01:04:47.723Z,27.83
2018-01-05T01:07:15.180Z,32.15
2018-01-05T01:09:42.640Z,29.27
2018-01-05T01:12:10.098Z,18.07
2018-01-05T01:14:37.559Z,25.53
2018-01-05T01:17:05.035Z,29.50
2018-01-05T01:19:32.472Z,34.33
2018-01-05T01:21:59.938Z,21.65
2018-01-05T01:24:27.397Z,30.77
2018-01-05T01:26:54.895Z,20.00
2018-01-05T01:29:22.391Z,14.80
2018-01-05T01:31:49.901Z,26.97
2018-01-05T01:34:17.380Z,25.83
2018-01-05T01:36:44.888Z,24.07
2018-01-05T01:39:12.387Z,22.60
2018-01-05T01:41:39.939Z,16.92
2018-01-05T01:44:07.514Z,15.25
2018-01-05T01:46:35.140Z,25.10
2018-01-05T01:49:02.597Z,15.90
2018-01-05T01:51:30.045Z,36.27
2018-01-05T01:53:57.588Z,20.65
2018-01-05T01:56:25.009Z,49.72
2018-01-05T01:58:52.489Z,44.38
2018-01-05T02:01:19.979Z,41.20
2018-01-05T02:03:47.436Z,37.22
2018-01-05T02:06:14.885Z,39.47
2018-01-05T02:08:42.353Z,21.50
2018-01-05T02:11:09.799Z,33.33
2018-01-05T02:13:36.531Z,30.47
2018-01-05T02:16:04.015Z,27.08
2018-01-05T02:18:31.483Z,28.85
2018-01-05T02:20:58.955Z,33.03
2018-01-05T02:23:26.430Z,20.83
2018-01-05T02:25:53.891Z,28.93
2018-01-05T02:28:21.365Z,25.88
2018-01-05T02:30:48.844Z,43.10
2018-01-05T02:33:16.319Z,28.83
2018-01-05T02:35:43.789Z,24.90
2018-01-05T02:38:11.283Z,21.33
2018-01-05T02:40:38.743Z,23.07
2018-01-05T02:43:06.211Z,34.03
2018-01-05T02:45:33.692Z,33.30
2018-01-05T02:48:01.148Z,41.05
2018-01-05T02:50:28.620Z,21.25
2018-01-05T02:52:56.103Z,29.77
2018-01-05T02:55:23.552Z,24.15
2018-01-05T02:57:51.004Z,27.10
2018-01-05T03:00:18.486Z,30.55
2018-01-05T03:02:45.959Z,21.60
2018-01-05T03:05:13.435Z,43.28
2018-01-05T03:07:40.914Z,35.20
2018-01-05T03:10:08.378Z,25.33
2018-01-05T03:12:35.893Z,22.50
2018-01-05T03:15:03.635Z,21.98
2018-01-05T03:17:31.100Z,35.78
2018-01-05T03:19:58.606Z,24.50
2018-01-05T03:22:26.064Z,26.27
2018-01-05T03:24:53.517Z,28.97
2018-01-05T03:27:20.956Z,10.03
2018-01-05T03:29:48.423Z,25.03
2018-01-05T03:32:15.878Z,20.17
2018-01-05T03:34:43.341Z,34.15
2018-01-05T03:37:10.831Z,36.58
2018-01-05T03:39:38.284Z,24.63
2018-01-05T03:42:05.755Z,26.73
2018-01-05T03:44:34.059Z,26.85
2018-01-05T03:47:01.580Z,17.17
2018-01-05T03:49:29.011Z,25.27
2018-01-05T03:51:56.523Z,19.92
2018-01-05T03:54:23.995Z,21.92
2018-01-05T03:56:51.489Z,24.40
2018-01-05T03:59:18.958Z,26.10
2018-01-05T04:01:46.408Z,24.87
2018-01-05T04:04:13.882Z,13.70
2018-01-05T04:06:41.347Z,12.23
2018-01-05T04:09:08.815Z,16.05
2018-01-05T04:11:36.280Z,19.48
2018-01-05T04:14:03.759Z,22.83
2018-01-05T04:16:31.222Z,21.08
2018-01-05T04:18:58.705Z,18.62
2018-01-05T04:21:26.156Z,14.38
2018-01-05T04:23:53.610Z,21.77
2018-01-05T04:26:21.091Z,17.60
2018-01-05T04:28:48.544Z,21.85
2018-01-05T04:31:16.005Z,25.15
2018-01-05T04:33:43.491Z,15.13
2018-01-05T04:36:10.966Z,17.05
2018-01-05T04:38:38.436Z,16.00
2018-01-05T04:41:05.901Z,19.25
2018-01-05T04:43:33.367Z,23.98
2018-01-05T04:46:00.817Z,17.98
2018-01-05T04:48:28.330Z,24.35
2018-01-05T04:50:55.781Z,20.67
2018-01-05T04:53:23.232Z,14.98
2018-01-05T04:55:50.712Z,16.42
2018-01-05T04:58:18.191Z,21.60
2018-01-05T05:00:45.663Z,16.35
2018-01-05T05:03:13.131Z,32.08
2018-01-05T05:05:40.572Z,17.60
2018-01-05T05:08:08.036Z,16.63
2018-01-05T05:10:35.493Z,14.80
2018-01-05T05:13:02.966Z,17.70
2018-01-05T05:15:30.437Z,17.00
2018-01-05T05:17:57.888Z,20.02
2018-01-05T05:20:25.350Z,17.60
2018-01-05T05:22:52.824Z,17.87
2018-01-05T05:25:20.284Z,18.62
2018-01-05T05:27:47.727Z,16.30
2018-01-05T05:30:15.211Z,17.48
2018-01-05T05:32:42.678Z,21.80
2018-01-05T05:35:10.133Z,15.95
2018-01-05T05:37:37.597Z,20.42
2018-01-05T05:40:05.090Z,15.65
2018-01-05T05:42:32.556Z,16.95
2018-01-05T05:45:00.042Z,12.27
2018-01-05T05:47:27.511Z,23.27
2018-01-05T05:49:54.965Z,9.07
2018-01-05T05:52:22.429Z,10.25
2018-01-05T05:54:49.891Z,10.80
2018-01-05T05:57:17.347Z,17.52
2018-01-05T05:59:44.831Z,17.90
2018-01-05T06:02:12.285Z,8.57
2018-01-05T06:04:39.763Z,11.57
2018-01-05T06:07:07.233Z,19.55
2018-01-05T06:09:34.671Z,18.20
2018-01-05T06:12:02.128Z,16.12
2018-01-05T06:14:29.600Z,25.93
2018-01-05T06:16:57.070Z,13.65
2018-01-05T06:19:24.689Z,10.35
2018-01-05T06:21:52.156Z,10.13
2018-01-05T06:24:19.614Z,11.27
2018-01-05T06:26:47.060Z,15.25
2018-01-05T06:29:14.537Z,20.10
2018-01-05T06:31:41.976Z,10.17
2018-01-05T06:34:09.412Z,16.67
2018-01-05T06:36:36.887Z,13.90
2018-01-05T06:39:04.336Z,13.90
2018-01-05T06:41:31.784Z,15.55
2018-01-05T06:43:59.276Z,20.37
2018-01-05T06:46:26.759Z,7.35
2018-01-05T06:48:54.212Z,14.90
2018-01-05T06:51:21.677Z,20.42
2018-01-05T06:53:49.139Z,12.13
2018-01-05T06:56:16.588Z,19.60
2018-01-05T06:58:44.067Z,20.83
2018-01-05T07:01:11.563Z,12.02
2018-01-05T07:03:39.010Z,13.40
2018-01-05T07:06:06.465Z,23.53
2018-01-05T07:08:33.923Z,15.73
2018-01-05T07:11:01.379Z,14.37
2018-01-05T07:13:28.843Z,17.00
2018-01-05T07:15:56.296Z,14.67
2018-01-05T07:18:23.744Z,16.57
2018-01-05T07:20:51.222Z,13.67
2018-01-05T07:23:18.691Z,24.30
2018-01-05T07:25:46.135Z,17.03
2018-01-05T07:28:13.602Z,7.87
2018-01-05T07:30:41.055Z,9.00
2018-01-05T07:33:08.520Z,12.23
2018-01-05T07:35:35.994Z,11.83
2018-01-05T07:38:03.436Z,6.90
2018-01-05T07:40:30.872Z,9.20
2018-01-05T07:42:58.323Z,14.43
2018-01-05T07:45:25.769Z,9.67
2018-01-05T07:47:53.221Z,6.80
2018-01-05T07:50:20.721Z,8.23
2018-01-05T07:52:48.178Z,14.77
2018-01-05T07:55:15.625Z,11.27
2018-01-05T07:57:43.092Z,7.10
2018-01-05T08:00:10.540Z,12.73
2018-01-05T08:02:38.014Z,11.80
2018-01-05T08:05:05.476Z,8.20
2018-01-05T08:07:32.936Z,6.93
2018-01-05T08:10:00.407Z,12.33
2018-01-05T08:12:27.878Z,8.93
2018-01-05T08:14:55.347Z,7.80
2018-01-05T08:17:22.812Z,4.73
2018-01-05T08:19:50.279Z,4.40
2018-01-05T08:22:17.743Z,13.83
2018-01-05T08:24:45.202Z,7.00
2018-01-05T08:27:12.660Z,7.83
2018-01-05T08:29:40.100Z,8.97
2018-01-05T08:32:07.543Z,6.43
2018-01-05T08:34:35.010Z,6.47
2018-01-05T08:37:02.460Z,12.80
2018-01-05T08:39:29.909Z,12.93
2018-01-05T08:41:57.383Z,7.23
2018-01-05T08:44:24.829Z,4.47
2018-01-05T08:46:52.276Z,10.40
2018-01-05T08:49:19.751Z,6.53
2018-01-05T08:51:47.196Z,17.67
2018-01-05T08:54:14.650Z,16.67
2018-01-05T08:56:42.113Z,9.63
2018-01-05T08:59:09.558Z,6.27
2018-01-05T09:01:37.004Z,9.10
2018-01-05T09:04:04.465Z,6.07
2018-01-05T09:06:31.939Z,7.70
2018-01-05T09:08:59.389Z,11.00
2018-01-05T09:11:26.867Z,22.10
2018-01-05T09:13:54.355Z,11.73
2018-01-05T09:16:21.805Z,20.80
2018-01-05T09:18:49.318Z,7.30
2018-01-05T09:21:16.733Z,7.70
2018-01-05T09:23:44.195Z,9.40
2018-01-05T09:26:11.656Z,12.70
2018-01-05T09:28:39.123Z,12.47
2018-01-05T09:31:06.569Z,11.47
2018-01-05T09:33:34.028Z,7.70
2018-01-05T09:36:01.487Z,10.30
2018-01-05T09:38:28.951Z,14.37
2018-01-05T09:40:56.434Z,22.60
2018-01-05T09:43:23.873Z,7.70
2018-01-05T09:45:51.342Z,10.97
2018-01-05T09:48:18.823Z,10.50
2018-01-05T09:50:46.273Z,11.90
2018-01-05T09:53:13.735Z,8.80
2018-01-05T09:55:41.211Z,12.30
2018-01-05T09:58:08.679Z,5.47
2018-01-05T10:00:36.121Z,4.70
2018-01-05T10:03:03.607Z,44.13
2018-01-05T10:05:31.072Z,17.90
2018-01-05T10:07:58.530Z,11.10
2018-01-05T10:10:25.997Z,11.30
2018-01-05T10:12:53.481Z,6.53
2018-01-05T10:15:20.941Z,9.90
2018-01-05T10:17:48.438Z,14.33
2018-01-05T10:20:15.892Z,9.10
2018-01-05T10:22:43.357Z,4.73
2018-01-05T10:25:10.838Z,9.53
2018-01-05T10:27:38.280Z,8.10
2018-01-05T10:30:05.756Z,5.23
2018-01-05T10:32:33.231Z,6.37
2018-01-05T10:35:00.691Z,50.50
2018-01-05T10:37:28.155Z,13.77
2018-01-05T10:39:55.631Z,6.77
2018-01-05T10:42:23.083Z,22.73
2018-01-05T10:44:50.533Z,26.50
2018-01-05T10:47:18.007Z,22.43
2018-01-05T10:49:45.470Z,11.37
2018-01-05T10:52:12.920Z,16.30
2018-01-05T10:54:40.419Z,51.83
2018-01-05T10:57:07.891Z,12.33
2018-01-05T10:59:35.352Z,16.83
2018-01-05T11:02:02.831Z,8.63
2018-01-05T11:04:30.276Z,17.23
2018-01-05T11:06:57.735Z,20.00
2018-01-05T11:09:25.200Z,49.80
2018-01-05T11:11:52.641Z,9.07
2018-01-05T11:14:20.103Z,11.13
2018-01-05T11:16:47.557Z,9.60
2018-01-05T11:19:15.010Z,8.20
2018-01-05T11:21:42.496Z,31.37
2018-01-05T11:24:09.979Z,14.20
2018-01-05T11:26:37.422Z,7.23
2018-01-05T11:29:04.860Z,9.73
2018-01-05T11:31:32.339Z,3.73
2018-01-05T11:33:59.788Z,5.93
2018-01-05T11:36:27.240Z,6.73
2018-01-05T11:38:54.700Z,6.20
2018-01-05T11:41:22.145Z,5.07
2018-01-05T11:43:49.596Z,5.83
2018-01-05T11:46:17.056Z,11.87
2018-01-05T11:48:44.500Z,4.93
2018-01-05T11:51:11.968Z,10.80
2018-01-05T11:53:39.430Z,4.90
2018-01-05T11:56:06.875Z,16.10
2018-01-05T11:58:34.351Z,11.53
2018-01-05T12:01:01.838Z,4.20
2018-01-05T12:03:29.303Z,5.90
2018-01-05T12:05:56.749Z,4.67
2018-01-05T12:08:24.223Z,6.67
2018-01-05T12:10:51.687Z,8.27
2018-01-05T12:13:19.147Z,4.90
2018-01-05T12:15:46.608Z,6.90
2018-01-05T12:18:14.067Z,6.40
2018-01-05T12:20:41.527Z,3.83
2018-01-05T12:23:08.984Z,6.53
2018-01-05T12:25:36.443Z,9.83
2018-01-05T12:28:03.904Z,10.30
2018-01-05T12:30:31.372Z,9.53
2018-01-05T12:32:58.835Z,7.50
2018-01-05T12:35:26.313Z,6.07
2018-01-05T12:37:53.811Z,10.60
2018-01-05T12:40:21.265Z,13.80
2018-01-05T12:42:48.751Z,11.27
2018-01-05T12:45:16.280Z,6.40
2018-01-05T12:47:43.744Z,4.70
2018-01-05T12:50:11.220Z,7.43
2018-01-05T12:52:38.708Z,4.97
2018-01-05T12:55:06.168Z,6.77
2018-01-05T12:57:33.694Z,9.63
2018-01-05T13:00:01.164Z,30.30
2018-01-05T13:02:28.654Z,42.17
2018-01-05T13:04:56.126Z,15.63
2018-01-05T13:07:23.619Z,63.73
2018-01-05T13:09:51.087Z,31.50
2018-01-05T13:12:18.560Z,21.90
2018-01-05T13:14:46.029Z,38.07
2018-01-05T13:17:13.499Z,26.10
2018-01-05T13:19:40.952Z,28.73
2018-01-05T13:22:08.446Z,19.30
2018-01-05T13:24:35.908Z,29.33
2018-01-05T13:27:03.362Z,20.27
2018-01-05T13:29:30.838Z,14.97
2018-01-05T13:31:58.313Z,24.37
2018-01-05T13:34:25.761Z,14.63
2018-01-05T13:36:53.227Z,8.67
2018-01-05T13:39:20.689Z,25.27
2018-01-05T13:41:48.159Z,19.73
2018-01-05T13:44:15.624Z,10.23
2018-01-05T13:46:43.104Z,13.23
2018-01-05T13:49:10.576Z,19.33
2018-01-05T13:51:38.067Z,3.50
2018-01-05T13:54:05.521Z,10.73
2018-01-05T13:56:32.989Z,3.97
2018-01-05T13:59:00.445Z,3.90
2018-01-05T14:01:27.912Z,7.13
2018-01-05T14:03:55.389Z,14.23
2018-01-05T14:06:22.866Z,3.60
2018-01-05T14:08:50.332Z,3.90
2018-01-05T14:11:17.788Z,23.93
2018-01-05T14:13:45.249Z,4.17
2018-01-05T14:16:12.731Z,3.33
2018-01-05T14:18:40.205Z,4.43
2018-01-05T14:21:07.668Z,3.67
2018-01-05T14:23:35.382Z,3.53
2018-01-05T14:26:02.833Z,3.60
2018-01-05T14:28:30.308Z,3.63
2018-01-05T14:30:57.765Z,3.40
2018-01-05T14:33:25.213Z,5.17
2018-01-05T14:35:52.667Z,7.80
2018-01-05T14:38:20.135Z,10.93
2018-01-05T14:40:47.599Z,12.53
2018-01-05T14:43:15.088Z,11.33
2018-01-05T14:45:42.571Z,13.77
2018-01-05T14:48:10.029Z,17.80
2018-01-05T14:50:37.524Z,14.97
2018-01-05T14:53:05.005Z,12.50
2018-01-05T14:55:32.474Z,17.07
2018-01-05T14:57:59.957Z,14.93
2018-01-05T15:00:27.425Z,18.60
2018-01-05T15:02:54.900Z,10.47
2018-01-05T15:05:22.361Z,12.97
2018-01-05T15:07:49.847Z,10.67
2018-01-05T15:10:17.300Z,17.27
2018-01-05T15:12:44.755Z,7.83
2018-01-05T15:15:12.209Z,9.73
2018-01-05T15:17:39.679Z,6.80
2018-01-05T15:20:07.151Z,5.07
2018-01-05T15:22:34.629Z,5.23
2018-01-05T15:25:02.090Z,4.77
2018-01-05T15:27:29.565Z,6.80
2018-01-05T15:29:57.031Z,6.10
2018-01-05T15:32:24.508Z,4.80
2018-01-05T15:34:51.989Z,4.90
2018-01-05T15:37:19.521Z,5.00
2018-01-05T15:39:46.985Z,4.77
2018-01-05T15:42:14.453Z,15.97
2018-01-05T15:44:41.919Z,4.97
2018-01-05T15:47:09.394Z,5.30
2018-01-05T15:49:36.915Z,4.00
2018-01-05T15:52:04.364Z,4.07
2018-01-05T15:54:31.860Z,9.23
2018-01-05T15:56:59.324Z,4.50
2018-01-05T15:59:26.839Z,4.13
2018-01-05T16:01:54.289Z,4.43
2018-01-05T16:04:21.773Z,4.10
2018-01-05T16:06:49.244Z,4.70
2018-01-05T16:09:16.711Z,4.97
2018-01-05T16:11:44.171Z,4.50
2018-01-05T16:14:11.632Z,5.43
2018-01-05T16:16:39.095Z,5.03
2018-01-05T16:19:06.576Z,4.60
2018-01-05T16:21:34.043Z,4.60
2018-01-05T16:24:01.492Z,9.30
2018-01-05T16:26:28.949Z,6.17
2018-01-05T16:28:56.402Z,9.20
2018-01-05T16:31:23.859Z,9.67
2018-01-05T16:33:51.325Z,5.17
2018-01-05T16:36:18.773Z,5.63
2018-01-05T16:38:46.251Z,6.20
2018-01-05T16:41:13.739Z,5.27
2018-01-05T16:43:41.216Z,5.53
2018-01-05T16:46:08.679Z,5.20
2018-01-05T16:48:36.202Z,4.93
2018-01-05T16:51:03.658Z,5.43
2018-01-05T16:53:31.123Z,6.70
2018-01-05T16:55:58.621Z,6.00
2018-01-05T16:58:26.077Z,6.93
2018-01-05T17:00:53.552Z,5.13
2018-01-05T17:03:21.045Z,7.27
2018-01-05T17:05:48.503Z,4.90
2018-01-05T17:08:15.964Z,6.20
2018-01-05T17:10:43.433Z,9.47
2018-01-05T17:13:10.963Z,5.90
2018-01-05T17:15:38.396Z,8.13
2018-01-05T17:18:05.880Z,6.07
2018-01-05T17:20:33.352Z,11.60
2018-01-05T17:23:00.817Z,17.97
2018-01-05T17:25:28.295Z,5.70
2018-01-05T17:27:55.744Z,5.50
2018-01-05T17:30:23.216Z,6.50
2018-01-05T17:32:50.681Z,6.30
2018-01-05T17:35:18.124Z,5.30
2018-01-05T17:37:45.581Z,6.07
2018-01-05T17:40:13.058Z,5.53
2018-01-05T17:42:40.527Z,6.37
2018-01-05T17:45:07.972Z,4.77
2018-01-05T17:47:35.456Z,4.93
2018-01-05T17:50:02.906Z,7.30
2018-01-05T17:52:30.356Z,4.33
2018-01-05T17:54:57.821Z,4.83
2018-01-05T17:57:25.288Z,5.30
2018-01-05T17:59:52.756Z,9.57
2018-01-05T18:02:20.235Z,5.40
2018-01-05T18:04:47.680Z,6.77
2018-01-05T18:07:15.222Z,7.37
2018-01-05T18:09:42.673Z,8.43
2018-01-05T18:12:10.145Z,9.40
2018-01-05T18:14:37.628Z,17.50
2018-01-05T18:17:05.101Z,18.77
2018-01-05T18:19:32.561Z,12.87
2018-01-05T18:22:00.038Z,11.50
2018-01-05T18:24:27.546Z,14.90
2018-01-05T18:26:54.992Z,6.47
2018-01-05T18:29:22.446Z,10.70
2018-01-05T18:31:49.936Z,9.63
2018-01-05T18:34:17.415Z,5.97
2018-01-05T18:36:44.896Z,7.63
2018-01-05T18:39:12.384Z,13.10
2018-01-05T18:41:39.841Z,22.73
2018-01-05T18:44:07.316Z,16.60
2018-01-05T18:46:34.789Z,21.73
2018-01-05T18:49:02.274Z,13.93
2018-01-05T18:51:29.729Z,19.43
2018-01-05T18:53:57.205Z,16.77
2018-01-05T18:56:24.668Z,13.23
2018-01-05T18:58:52.129Z,20.00
2018-01-05T19:01:19.604Z,13.17
2018-01-05T19:03:47.077Z,25.57
2018-01-05T19:06:14.542Z,23.53
2018-01-05T19:08:42.048Z,27.70
2018-01-05T19:11:09.521Z,15.37
2018-01-05T19:13:36.991Z,13.80
2018-01-05T19:16:04.479Z,20.90
2018-01-05T19:18:31.937Z,12.13
2018-01-05T19:20:59.409Z,17.10
2018-01-05T19:23:26.897Z,22.80
2018-01-05T19:25:54.362Z,21.70
2018-01-05T19:28:21.822Z,17.50
2018-01-05T19:30:49.297Z,24.13
2018-01-05T19:33:16.757Z,13.23
2018-01-05T19:35:44.225Z,19.37
2018-01-05T19:38:11.708Z,8.90
2018-01-05T19:40:39.196Z,16.40
2018-01-05T19:43:06.690Z,30.77
2018-01-05T19:45:34.162Z,18.00
2018-01-05T19:48:01.583Z,22.57
2018-01-05T19:50:29.088Z,10.53
2018-01-05T19:52:56.558Z,10.80
2018-01-05T19:55:24.032Z,8.83
2018-01-05T19:57:51.484Z,10.90
2018-01-05T20:00:18.967Z,6.23
2018-01-05T20:02:46.440Z,6.80
2018-01-05T20:05:14.221Z,18.80
2018-01-05T20:07:41.707Z,14.03
2018-01-05T20:10:09.188Z,16.03
2018-01-05T20:12:36.642Z,25.13
2018-01-05T20:15:04.121Z,33.93
2018-01-05T20:17:31.588Z,19.23
2018-01-05T20:19:59.118Z,10.57
2018-01-05T20:22:26.737Z,37.67
2018-01-05T20:24:54.273Z,42.00
2018-01-05T20:27:21.739Z,44.33
2018-01-05T20:29:49.223Z,17.70
2018-01-05T20:32:16.684Z,23.20
2018-01-05T20:34:44.158Z,23.17
2018-01-05T20:37:11.652Z,22.27
2018-01-05T20:39:39.132Z,24.33
2018-01-05T20:42:06.604Z,28.43
2018-01-05T20:44:34.077Z,20.00
2018-01-05T20:47:01.529Z,22.50
2018-01-05T20:49:29.008Z,29.23
2018-01-05T20:51:56.489Z,18.03
2018-01-05T20:54:23.949Z,21.80
2018-01-05T20:56:51.404Z,17.37
2018-01-05T20:59:18.887Z,13.80
2018-01-05T21:01:46.372Z,14.83
2018-01-05T21:04:13.847Z,61.60
2018-01-05T21:06:41.312Z,22.03
2018-01-05T21:09:08.787Z,29.00
2018-01-05T21:11:36.241Z,18.70
2018-01-05T21:14:03.741Z,30.93
2018-01-05T21:16:31.220Z,30.57
2018-01-05T21:18:58.677Z,31.00
2018-01-05T21:21:26.166Z,32.73
2018-01-05T21:23:53.637Z,19.00
2018-01-05T21:26:21.092Z,29.33
2018-01-05T21:28:48.564Z,25.73
2018-01-05T21:31:16.039Z,24.37
2018-01-05T21:33:43.497Z,27.67
2018-01-05T21:36:10.981Z,16.87
2018-01-05T21:38:38.455Z,15.70
2018-01-05T21:41:05.912Z,21.20
2018-01-05T21:43:33.385Z,17.47
2018-01-05T21:46:01.093Z,20.33
2018-01-05T21:48:28.628Z,17.73
2018-01-05T21:50:56.185Z,30.63
2018-01-05T21:53:23.701Z,29.83
2018-01-05T21:55:51.287Z,34.53
2018-01-05T21:58:18.766Z,19.60
2018-01-05T22:00:46.250Z,19.47
2018-01-05T22:03:13.757Z,14.70
2018-01-05T22:05:41.346Z,15.97
2018-01-05T22:08:08.797Z,21.13
2018-01-05T22:10:36.249Z,19.33
2018-01-05T22:13:03.736Z,15.13
2018-01-05T22:15:31.216Z,10.57
2018-01-05T22:17:58.669Z,14.13
2018-01-05T22:20:26.140Z,18.47
2018-01-05T22:22:53.597Z,14.50
2018-01-05T22:25:21.056Z,16.40
2018-01-05T22:27:48.551Z,17.33
2018-01-05T22:30:16.032Z,17.60
2018-01-05T22:32:43.520Z,17.83
2018-01-05T22:35:11.012Z,15.40
2018-01-05T22:37:38.476Z,17.20
2018-01-05T22:40:05.971Z,15.27
2018-01-05T22:42:33.432Z,17.70
2018-01-05T22:45:00.989Z,11.77
2018-01-05T22:47:28.928Z,18.10
2018-01-05T22:49:56.481Z,13.43
2018-01-05T22:52:23.968Z,15.63
2018-01-05T22:54:51.441Z,25.70
2018-01-05T22:57:18.915Z,47.83
2018-01-05T22:59:46.381Z,52.73
2018-01-05T23:02:13.873Z,54.87
2018-01-05T23:04:41.338Z,56.40
2018-01-05T23:07:08.797Z,31.50
2018-01-05T23:09:36.291Z,17.30
2018-01-05T23:12:03.754Z,33.00
2018-01-05T23:14:31.220Z,19.87
2018-01-05T23:16:58.708Z,15.43
2018-01-05T23:19:26.174Z,22.57
2018-01-05T23:21:53.660Z,29.10
2018-01-05T23:24:21.134Z,20.00
2018-01-05T23:26:48.867Z,12.13
2018-01-05T23:29:16.375Z,17.77
2018-01-05T23:31:43.829Z,9.97
2018-01-05T23:34:11.317Z,10.83
2018-01-05T23:36:38.791Z,19.23
2018-01-05T23:39:06.258Z,8.70
2018-01-05T23:41:33.763Z,6.50
2018-01-05T23:44:01.259Z,14.40
2018-01-05T23:46:28.717Z,13.77
2018-01-05T23:48:56.173Z,16.73
2018-01-05T23:51:23.593Z,8.57
2018-01-05T23:53:51.092Z,5.83
2018-01-05T23:56:18.545Z,10.83
2018-01-05T23:58:46.000Z,7.63
